createdAt,value
2023-03-13T00:02:25.104Z,3.20
2023-03-13T00:04:52.375Z,3.30
2023-03-13T00:07:19.819Z,3.20
2023-03-13T00:09:46.995Z,3.20
2023-03-13T00:12:14.418Z,3.10
2023-03-13T00:14:41.617Z,3.00
2023-03-13T00:17:09.086Z,2.90
2023-03-13T00:19:36.379Z,3.00
2023-03-13T00:22:03.946Z,2.90
2023-03-13T00:24:31.094Z,2.90
2023-03-13T00:27:03.239Z,2.80
2023-03-13T00:29:32.887Z,2.80
2023-03-13T00:32:01.231Z,2.80
2023-03-13T00:34:28.506Z,2.80
2023-03-13T00:36:56.834Z,2.80
2023-03-13T00:39:24.007Z,2.80
2023-03-13T00:41:51.423Z,2.90
2023-03-13T00:44:18.653Z,2.90
2023-03-13T00:46:48.376Z,2.90
2023-03-13T00:49:15.604Z,2.90
2023-03-13T00:51:43.081Z,3.00
2023-03-13T00:54:10.252Z,3.00
2023-03-13T00:56:37.718Z,3.00
2023-03-13T00:59:05.102Z,3.00
2023-03-13T01:01:34.665Z,3.00
2023-03-13T01:04:07.880Z,3.10
2023-03-13T01:06:37.516Z,3.10
2023-03-13T01:09:07.564Z,3.10
2023-03-13T01:11:37.047Z,3.10
2023-03-13T01:14:08.193Z,3.10
2023-03-13T01:16:37.289Z,3.20
2023-03-13T01:19:07.839Z,3.10
2023-03-13T01:21:35.620Z,3.10
2023-03-13T01:24:04.319Z,3.10
2023-03-13T01:26:32.175Z,3.10
2023-03-13T01:28:59.892Z,3.10
2023-03-13T01:31:33.814Z,3.10
2023-03-13T01:34:04.280Z,3.10
2023-03-13T01:36:32.957Z,3.20
2023-03-13T01:39:01.425Z,3.10
2023-03-13T01:41:30.852Z,3.10
2023-03-13T01:43:58.602Z,3.10
2023-03-13T01:46:31.443Z,3.10
2023-03-13T01:49:33.549Z,3.10
2023-03-13T01:52:31.255Z,3.10
2023-03-13T01:55:16.178Z,3.00
2023-03-13T01:57:50.915Z,3.00
2023-03-13T02:00:26.975Z,3.00
2023-03-13T02:02:57.516Z,3.00
2023-03-13T02:05:27.472Z,3.10
2023-03-13T02:08:04.786Z,3.10
2023-03-13T02:10:34.528Z,3.10
2023-03-13T02:13:03.160Z,3.00
2023-03-13T02:15:31.397Z,3.10
2023-03-13T02:18:00.218Z,3.10
2023-03-13T02:20:27.879Z,3.20
2023-03-13T02:23:14.771Z,3.20
2023-03-13T02:25:49.820Z,3.30
2023-03-13T02:28:28.589Z,3.20
2023-03-13T02:30:58.792Z,3.20
2023-03-13T02:33:30.479Z,3.20
2023-03-13T02:36:00.480Z,3.30
2023-03-13T02:38:31.390Z,3.30
2023-03-13T02:41:01.387Z,3.30
2023-03-13T02:43:37.293Z,3.30
2023-03-13T02:46:16.097Z,3.30
2023-03-13T02:48:51.638Z,3.40
2023-03-13T02:51:40.209Z,3.50
2023-03-13T02:54:19.452Z,3.50
2023-03-13T02:56:50.885Z,3.60
2023-03-13T02:59:18.571Z,3.60
2023-03-13T03:01:47.090Z,3.60
2023-03-13T03:04:14.639Z,3.70
2023-03-13T03:06:41.801Z,3.80
2023-03-13T03:09:09.233Z,3.80
2023-03-13T03:11:38.592Z,3.80
2023-03-13T03:14:11.268Z,3.80
2023-03-13T03:16:42.792Z,3.80
2023-03-13T03:19:11.178Z,3.80
2023-03-13T03:21:38.677Z,3.80
2023-03-13T03:24:06.580Z,3.80
2023-03-13T03:26:34.249Z,3.80
2023-03-13T03:29:02.629Z,3.90
2023-03-13T03:31:31.021Z,3.90
2023-03-13T03:33:58.668Z,3.90
2023-03-13T03:36:26.420Z,3.90
2023-03-13T03:38:54.121Z,3.90
2023-03-13T03:41:25.321Z,3.90
2023-03-13T03:43:53.356Z,4.00
2023-03-13T03:46:24.865Z,4.00
2023-03-13T03:48:52.494Z,4.00
2023-03-13T03:51:19.728Z,4.10
2023-03-13T03:53:48.260Z,4.20
2023-03-13T03:56:15.546Z,4.20
2023-03-13T03:58:48.129Z,4.20
2023-03-13T04:01:24.460Z,4.20
2023-03-13T04:03:51.916Z,4.20
2023-03-13T04:06:19.650Z,4.30
2023-03-13T04:08:48.022Z,4.30
2023-03-13T04:11:18.014Z,4.30
2023-03-13T04:13:50.643Z,4.40
2023-03-13T04:16:18.278Z,4.50
2023-03-13T04:18:47.184Z,4.50
2023-03-13T04:21:16.054Z,4.40
2023-03-13T04:23:48.221Z,4.40
2023-03-13T04:26:16.432Z,4.40
2023-03-13T04:28:44.907Z,4.40
2023-03-13T04:31:17.113Z,4.40
2023-03-13T04:34:06.388Z,4.50
2023-03-13T04:36:52.254Z,4.50
2023-03-13T04:39:38.061Z,4.50
2023-03-13T04:42:28.270Z,4.40
2023-03-13T04:45:25.152Z,4.50
2023-03-13T04:48:12.779Z,4.50
2023-03-13T04:50:48.504Z,4.50
2023-03-13T04:53:25.843Z,4.50
2023-03-13T04:56:32.519Z,4.50
2023-03-13T04:59:27.492Z,4.50
2023-03-13T05:02:13.826Z,4.50
2023-03-13T05:05:01.411Z,4.60
2023-03-13T05:07:47.833Z,4.60
2023-03-13T05:10:15.092Z,4.70
2023-03-13T05:12:46.492Z,4.70
2023-03-13T05:15:40.183Z,4.60
2023-03-13T05:18:26.844Z,4.70
2023-03-13T05:21:12.569Z,4.80
2023-03-13T05:24:00.393Z,4.80
2023-03-13T05:26:27.568Z,4.80
2023-03-13T05:29:33.454Z,4.80
2023-03-13T05:32:06.797Z,4.90
2023-03-13T05:35:00.938Z,5.00
2023-03-13T05:38:00.536Z,5.00
2023-03-13T05:40:27.981Z,5.00
2023-03-13T05:43:08.462Z,5.00
2023-03-13T05:45:54.681Z,5.10
2023-03-13T05:48:35.302Z,5.20
2023-03-13T05:51:09.526Z,5.10
2023-03-13T05:54:08.958Z,5.20
2023-03-13T05:57:05.927Z,5.20
2023-03-13T05:59:53.880Z,5.30
2023-03-13T06:02:40.283Z,5.40
2023-03-13T06:05:11.110Z,5.50
2023-03-13T06:07:39.261Z,5.50
2023-03-13T06:10:06.945Z,5.50
2023-03-13T06:12:34.503Z,5.60
2023-03-13T06:15:02.544Z,5.70
2023-03-13T06:17:50.520Z,5.80
2023-03-13T06:20:17.808Z,5.90
2023-03-13T06:22:45.457Z,5.90
2023-03-13T06:25:12.715Z,6.10
2023-03-13T06:27:41.693Z,6.20
2023-03-13T06:30:10.536Z,6.20
2023-03-13T06:32:38.227Z,6.20
2023-03-13T06:35:06.668Z,6.30
2023-03-13T06:37:34.144Z,6.30
2023-03-13T06:40:01.602Z,6.40
2023-03-13T06:42:29.075Z,6.40
2023-03-13T06:44:56.254Z,6.50
2023-03-13T06:47:23.730Z,6.60
2023-03-13T06:49:51.086Z,6.70
2023-03-13T06:52:19.439Z,6.70
2023-03-13T06:54:47.586Z,6.70
2023-03-13T06:57:15.039Z,6.80
2023-03-13T06:59:42.229Z,7.00
2023-03-13T07:02:11.975Z,7.00
2023-03-13T07:04:39.441Z,7.20
2023-03-13T07:07:06.900Z,7.20
2023-03-13T07:09:34.320Z,7.30
2023-03-13T07:12:03.323Z,7.20
2023-03-13T07:14:30.674Z,7.30
2023-03-13T07:16:59.699Z,7.40
2023-03-13T07:19:27.488Z,7.40
2023-03-13T07:21:56.996Z,7.40
2023-03-13T07:24:24.327Z,7.40
2023-03-13T07:27:04.906Z,7.50
2023-03-13T07:29:34.186Z,7.70
2023-03-13T07:32:01.840Z,7.80
2023-03-13T07:34:29.202Z,7.80
2023-03-13T07:36:56.730Z,7.90
2023-03-13T07:39:24.170Z,8.00
2023-03-13T07:41:51.634Z,8.00
2023-03-13T07:44:18.875Z,8.10
2023-03-13T07:46:48.474Z,8.30
2023-03-13T07:49:16.086Z,8.30
2023-03-13T07:51:44.587Z,8.50
2023-03-13T07:54:12.158Z,8.60
2023-03-13T07:56:40.171Z,8.70
2023-03-13T07:59:07.850Z,8.90
2023-03-13T08:01:35.688Z,8.90
2023-03-13T08:04:04.085Z,8.90
2023-03-13T08:06:35.561Z,9.00
2023-03-13T08:09:03.108Z,9.10
2023-03-13T08:11:30.780Z,9.20
2023-03-13T08:13:58.647Z,9.20
2023-03-13T08:16:28.836Z,9.40
2023-03-13T08:18:58.842Z,9.50
2023-03-13T08:21:28.780Z,9.50
2023-03-13T08:23:58.132Z,9.70
2023-03-13T08:26:28.310Z,9.80
2023-03-13T08:28:57.974Z,10.00
2023-03-13T08:31:28.716Z,10.20
2023-03-13T08:33:55.960Z,10.30
2023-03-13T08:36:26.776Z,10.20
2023-03-13T08:38:55.978Z,10.40
2023-03-13T08:41:25.870Z,10.50
2023-03-13T08:43:54.280Z,10.60
2023-03-13T08:46:22.210Z,10.70
2023-03-13T08:48:54.103Z,10.60
2023-03-13T08:51:24.337Z,10.70
2023-03-13T08:53:53.127Z,10.80
2023-03-13T08:56:23.206Z,11.00
2023-03-13T08:58:55.033Z,11.20
2023-03-13T09:01:24.325Z,11.20
2023-03-13T09:03:52.668Z,11.50
2023-03-13T09:06:20.830Z,11.40
2023-03-13T09:08:48.529Z,11.50
2023-03-13T09:11:21.016Z,11.40
2023-03-13T09:13:50.332Z,11.30
2023-03-13T09:16:20.537Z,11.30
2023-03-13T09:18:48.605Z,11.40
2023-03-13T09:21:19.223Z,11.60
2023-03-13T09:23:47.595Z,11.60
2023-03-13T09:26:16.241Z,11.50
2023-03-13T09:28:44.239Z,11.70
2023-03-13T09:31:17.486Z,11.80
2023-03-13T09:33:47.367Z,11.70
2023-03-13T09:36:15.301Z,12.00
2023-03-13T09:38:42.748Z,12.10
2023-03-13T09:48:48.792Z,12.10
2023-03-13T09:51:24.701Z,12.00
2023-03-13T09:53:51.808Z,12.10
2023-03-13T09:56:25.609Z,12.30
2023-03-13T09:58:58.299Z,12.40
2023-03-13T10:01:31.462Z,12.70
2023-03-13T10:04:26.506Z,12.60
2023-03-13T10:06:54.144Z,12.90
2023-03-13T10:09:28.508Z,12.90
2023-03-13T10:12:04.003Z,12.90
2023-03-13T10:14:44.208Z,13.00
2023-03-13T10:17:11.621Z,12.90
2023-03-13T10:19:44.550Z,12.70
2023-03-13T10:22:17.401Z,13.00
2023-03-13T10:24:47.533Z,13.20
2023-03-13T10:27:15.775Z,12.90
2023-03-13T10:29:43.131Z,12.60
2023-03-13T10:32:16.790Z,12.70
2023-03-13T10:35:00.536Z,12.80
2023-03-13T10:37:43.943Z,12.90
2023-03-13T10:40:27.228Z,13.10
2023-03-13T10:43:13.154Z,13.10
2023-03-13T10:45:40.323Z,13.40
2023-03-13T10:48:23.667Z,13.60
2023-03-13T10:50:57.423Z,13.80
2023-03-13T10:53:31.407Z,14.00
2023-03-13T10:56:12.386Z,14.00
2023-03-13T10:58:46.372Z,14.00
2023-03-13T11:01:31.886Z,13.80
2023-03-13T11:04:01.460Z,13.70
2023-03-13T11:06:35.610Z,13.80
2023-03-13T11:09:12.053Z,14.00
2023-03-13T11:11:49.538Z,14.20
2023-03-13T11:14:23.554Z,13.90
2023-03-13T11:17:10.383Z,13.60
2023-03-13T11:19:43.754Z,13.40
2023-03-13T11:22:33.815Z,13.30
2023-03-13T11:25:17.786Z,13.20
2023-03-13T11:27:53.134Z,13.10
2023-03-13T11:30:38.962Z,13.00
2023-03-13T11:33:22.972Z,12.90
2023-03-13T11:36:09.763Z,12.80
2023-03-13T11:38:41.255Z,12.70
2023-03-13T11:41:11.659Z,12.50
2023-03-13T11:44:12.367Z,12.50
2023-03-13T11:47:08.721Z,12.50
2023-03-13T11:49:48.228Z,12.30
2023-03-13T11:52:33.771Z,12.10
2023-03-13T11:55:18.942Z,12.00
2023-03-13T11:58:07.567Z,12.10
2023-03-13T12:01:00.470Z,12.00
2023-03-13T12:03:38.472Z,12.10
2023-03-13T12:06:27.088Z,12.20
2023-03-13T12:09:04.473Z,12.30
2023-03-13T12:11:43.721Z,12.50
2023-03-13T12:14:29.182Z,12.50
2023-03-13T12:17:04.251Z,12.60
2023-03-13T12:19:53.042Z,12.60
2023-03-13T12:22:36.265Z,12.70
2023-03-13T12:25:12.968Z,12.60
2023-03-13T12:27:45.624Z,12.60
2023-03-13T12:30:42.236Z,12.40
2023-03-13T12:33:28.422Z,12.30
2023-03-13T12:36:09.325Z,12.00
2023-03-13T12:38:48.000Z,11.90
2023-03-13T12:41:42.066Z,11.90
2023-03-13T12:44:18.866Z,11.90
2023-03-13T12:47:06.034Z,11.80
2023-03-13T12:50:02.111Z,11.70
2023-03-13T12:52:55.873Z,11.80
2023-03-13T12:55:56.261Z,11.70
2023-03-13T12:58:37.913Z,11.80
2023-03-13T13:01:08.113Z,11.90
2023-03-13T13:03:51.889Z,11.90
2023-03-13T13:06:20.063Z,12.00
2023-03-13T13:09:02.794Z,12.00
2023-03-13T13:11:39.233Z,12.00
2023-03-13T13:14:18.641Z,12.00
2023-03-13T13:16:56.266Z,11.90
2023-03-13T13:19:23.681Z,11.90
2023-03-13T13:22:28.602Z,11.90
2023-03-13T13:25:00.694Z,12.00
2023-03-13T13:27:36.701Z,12.00
2023-03-13T13:30:31.977Z,12.00
2023-03-13T13:33:18.617Z,12.00
2023-03-13T13:36:08.905Z,11.90
2023-03-13T13:38:41.926Z,11.70
2023-03-13T13:41:09.414Z,11.60
2023-03-13T13:43:41.586Z,11.50
2023-03-13T13:46:29.254Z,11.50
2023-03-13T13:49:05.744Z,11.50
2023-03-13T13:51:34.427Z,11.40
2023-03-13T13:54:21.332Z,11.40
2023-03-13T13:56:55.550Z,11.30
2023-03-13T13:59:24.815Z,11.30
2023-03-13T14:02:25.440Z,11.20
2023-03-13T14:05:04.051Z,11.30
2023-03-13T14:07:44.777Z,11.30
2023-03-13T14:10:19.427Z,11.30
2023-03-13T14:12:52.220Z,11.30
2023-03-13T14:15:24.791Z,11.20
2023-03-13T14:18:09.181Z,11.20
2023-03-13T14:20:38.992Z,11.20
2023-03-13T14:23:11.738Z,11.20
2023-03-13T14:25:43.964Z,11.10
2023-03-13T14:28:20.833Z,11.10
2023-03-13T14:30:50.226Z,11.10
2023-03-13T14:33:18.252Z,11.10
2023-03-13T14:35:46.388Z,11.10
2023-03-13T14:38:22.434Z,11.10
2023-03-13T14:40:50.669Z,11.10
2023-03-13T14:43:44.522Z,11.10
2023-03-13T14:46:22.619Z,11.10
2023-03-13T14:48:50.138Z,11.20
2023-03-13T14:51:27.306Z,11.10
2023-03-13T14:53:58.784Z,11.20
2023-03-13T14:56:38.157Z,11.00
2023-03-13T14:59:23.231Z,11.00
2023-03-13T15:02:19.038Z,11.00
2023-03-13T15:04:59.605Z,11.00
2023-03-13T15:07:47.033Z,11.00
2023-03-13T15:10:31.951Z,11.00
2023-03-13T15:12:59.202Z,11.00
2023-03-13T15:15:26.745Z,11.10
2023-03-13T15:17:53.981Z,11.10
2023-03-13T15:20:23.031Z,11.10
2023-03-13T15:22:50.218Z,11.10
2023-03-13T15:25:20.304Z,11.10
2023-03-13T15:27:48.564Z,11.10
2023-03-13T15:30:18.260Z,11.10
2023-03-13T15:32:47.006Z,11.10
2023-03-13T15:35:28.264Z,11.10
2023-03-13T15:37:57.432Z,11.00
2023-03-13T15:40:25.749Z,11.00
2023-03-13T15:42:53.985Z,10.90
2023-03-13T15:45:21.619Z,10.90
2023-03-13T15:47:48.995Z,10.90
2023-03-13T15:50:19.122Z,10.90
2023-03-13T15:52:46.715Z,10.90
2023-03-13T15:55:14.757Z,10.90
2023-03-13T15:57:47.156Z,10.90
2023-03-13T16:00:26.028Z,10.90
2023-03-13T16:02:53.442Z,10.90
2023-03-13T16:05:21.138Z,10.90
2023-03-13T16:07:48.545Z,10.90
2023-03-13T16:10:28.188Z,10.90
2023-03-13T16:12:55.482Z,10.90
2023-03-13T16:15:23.056Z,10.90
2023-03-13T16:17:50.774Z,10.80
2023-03-13T16:20:21.915Z,10.80
2023-03-13T16:22:50.628Z,10.80
2023-03-13T16:25:19.341Z,10.70
2023-03-13T16:27:46.484Z,10.70
2023-03-13T16:30:16.876Z,10.80
2023-03-13T16:32:44.892Z,10.80
2023-03-13T16:35:12.796Z,10.70
2023-03-13T16:37:40.455Z,10.70
2023-03-13T16:40:15.569Z,10.70
2023-03-13T16:42:42.906Z,10.70
2023-03-13T16:45:11.908Z,10.70
2023-03-13T16:47:39.323Z,10.80
2023-03-13T16:50:38.054Z,10.80
2023-03-13T16:53:05.278Z,10.80
2023-03-13T16:55:36.645Z,10.80
2023-03-13T16:58:04.900Z,10.80
2023-03-13T17:00:33.492Z,10.80
2023-03-13T17:03:01.577Z,10.80
2023-03-13T17:05:29.283Z,10.80
2023-03-13T17:07:56.683Z,10.80
2023-03-13T17:10:34.892Z,10.80
2023-03-13T17:13:02.756Z,10.80
2023-03-13T17:15:30.336Z,10.80
2023-03-13T17:17:57.707Z,10.70
2023-03-13T17:20:27.703Z,10.80
2023-03-13T17:22:58.049Z,10.80
2023-03-13T17:25:25.813Z,10.80
2023-03-13T17:27:53.490Z,10.80
2023-03-13T17:30:27.422Z,10.80
2023-03-13T17:32:54.873Z,10.80
2023-03-13T17:35:23.266Z,10.80
2023-03-13T17:37:50.877Z,10.80
2023-03-13T17:40:18.306Z,10.80
2023-03-13T17:42:45.728Z,10.80
2023-03-13T17:45:14.125Z,10.80
2023-03-13T17:47:41.821Z,10.70
2023-03-13T17:50:20.238Z,10.70
2023-03-13T17:52:47.757Z,10.70
2023-03-13T17:55:15.588Z,10.70
2023-03-13T17:57:43.868Z,10.70
2023-03-13T18:00:21.680Z,10.70
2023-03-13T18:03:01.740Z,10.80
2023-03-13T18:06:01.819Z,10.80
2023-03-13T18:08:29.661Z,10.80
2023-03-13T18:10:57.765Z,10.80
2023-03-13T18:13:25.068Z,10.80
2023-03-13T18:15:52.785Z,10.80
2023-03-13T18:18:19.988Z,10.80
2023-03-13T18:20:48.470Z,10.80
2023-03-13T18:23:15.671Z,10.80
2023-03-13T18:25:43.285Z,10.80
2023-03-13T18:28:12.301Z,10.80
2023-03-13T18:30:40.026Z,10.80
2023-03-13T18:33:07.199Z,10.80
2023-03-13T18:35:35.053Z,10.90
2023-03-13T18:38:02.452Z,10.90
2023-03-13T18:40:31.528Z,10.80
2023-03-13T18:42:58.723Z,10.80
2023-03-13T18:45:27.058Z,10.80
2023-03-13T18:47:54.852Z,10.80
2023-03-13T18:50:29.570Z,10.80
2023-03-13T18:52:59.039Z,10.80
2023-03-13T18:55:29.142Z,10.80
2023-03-13T18:57:56.611Z,10.80
2023-03-13T19:00:27.072Z,10.80
2023-03-13T19:02:54.388Z,10.70
2023-03-13T19:05:22.716Z,10.70
2023-03-13T19:07:49.947Z,10.70
2023-03-13T19:10:17.436Z,10.70
2023-03-13T19:12:45.404Z,10.70
2023-03-13T19:15:14.849Z,10.70
2023-03-13T19:17:42.463Z,10.70
2023-03-13T19:20:19.137Z,10.70
2023-03-13T19:22:46.653Z,10.70
2023-03-13T19:25:17.275Z,10.70
2023-03-13T19:27:44.935Z,10.60
2023-03-13T19:30:23.317Z,10.70
2023-03-13T19:32:51.380Z,10.70
2023-03-13T19:35:21.708Z,10.60
2023-03-13T19:37:49.537Z,10.60
2023-03-13T19:40:21.103Z,10.60
2023-03-13T19:42:48.546Z,10.60
2023-03-13T19:45:20.528Z,10.60
2023-03-13T19:47:48.499Z,10.50
2023-03-13T19:50:22.164Z,10.50
2023-03-13T19:52:49.541Z,10.50
2023-03-13T19:55:17.241Z,10.50
2023-03-13T19:57:44.436Z,10.50
2023-03-13T20:00:22.577Z,10.50
2023-03-13T20:02:52.131Z,10.50
2023-03-13T20:05:19.627Z,10.50
2023-03-13T20:07:48.216Z,10.50
2023-03-13T20:10:16.184Z,10.60
2023-03-13T20:12:43.532Z,10.50
2023-03-13T20:15:12.634Z,10.60
2023-03-13T20:17:39.891Z,10.60
2023-03-13T20:20:08.570Z,10.60
2023-03-13T20:22:35.928Z,10.60
2023-03-13T20:25:03.565Z,10.60
2023-03-13T20:27:30.774Z,10.70
2023-03-13T20:29:58.450Z,10.70
2023-03-13T20:32:25.669Z,10.70
2023-03-13T20:34:53.204Z,10.70
2023-03-13T20:37:20.803Z,10.70
2023-03-13T20:39:48.270Z,10.70
2023-03-13T20:42:16.503Z,10.70
2023-03-13T20:44:44.127Z,10.70
2023-03-13T20:47:11.316Z,10.70
2023-03-13T20:49:41.054Z,10.70
2023-03-13T20:52:08.391Z,10.70
2023-03-13T20:54:35.952Z,10.70
2023-03-13T20:57:04.379Z,10.70
2023-03-13T20:59:32.136Z,10.80
2023-03-13T21:01:59.585Z,10.80
2023-03-13T21:04:27.251Z,10.70
2023-03-13T21:06:54.475Z,10.60
2023-03-13T21:09:21.880Z,10.50
2023-03-13T21:11:49.123Z,10.30
2023-03-13T21:14:16.663Z,10.20
2023-03-13T21:16:44.136Z,10.10
2023-03-13T21:19:11.835Z,10.00
2023-03-13T21:21:39.044Z,10.00
2023-03-13T21:24:06.925Z,9.90
2023-03-13T21:26:34.094Z,9.80
2023-03-13T21:29:01.615Z,9.80
2023-03-13T21:31:29.443Z,9.70
2023-03-13T21:33:57.124Z,9.70
2023-03-13T21:36:24.382Z,9.60
2023-03-13T21:38:52.263Z,9.60
2023-03-13T21:41:21.857Z,9.50
2023-03-13T21:43:49.313Z,9.50
2023-03-13T21:46:17.980Z,9.40
2023-03-13T21:51:18.233Z,9.40
2023-03-13T21:53:45.733Z,9.40
2023-03-13T21:56:15.493Z,9.30
2023-03-13T21:58:45.281Z,9.30
2023-03-13T22:01:13.383Z,9.30
2023-03-13T22:03:41.530Z,9.20
2023-03-13T22:06:13.599Z,9.30
2023-03-13T22:08:41.550Z,9.20
2023-03-13T22:11:09.617Z,9.20
2023-03-13T22:13:37.229Z,9.20
2023-03-13T22:16:04.827Z,9.30
2023-03-13T22:18:34.416Z,9.20
2023-03-13T22:21:01.782Z,9.20
2023-03-13T22:23:29.519Z,9.20
2023-03-13T22:25:58.339Z,9.20
2023-03-13T22:28:26.523Z,9.20
2023-03-13T22:30:53.787Z,9.20
2023-03-13T22:33:21.498Z,9.20
2023-03-13T22:35:52.484Z,9.20
2023-03-13T22:38:21.572Z,9.20
2023-03-13T22:40:56.590Z,9.30
2023-03-13T22:43:24.026Z,9.30
2023-03-13T22:45:51.273Z,9.40
2023-03-13T22:48:18.704Z,9.40
2023-03-13T22:50:45.921Z,9.40
2023-03-13T22:53:13.624Z,9.50
2023-03-13T22:55:40.947Z,9.40
2023-03-13T22:58:08.543Z,9.40
2023-03-13T23:00:35.859Z,9.40
2023-03-13T23:03:03.329Z,9.40
2023-03-13T23:05:30.603Z,9.40
2023-03-13T23:07:58.047Z,9.40
2023-03-13T23:10:25.339Z,9.40
2023-03-13T23:12:52.981Z,9.50
2023-03-13T23:15:20.263Z,9.50
2023-03-13T23:17:47.796Z,9.50
2023-03-13T23:20:16.018Z,9.50
2023-03-13T23:22:45.734Z,9.50
2023-03-13T23:25:14.216Z,9.50
2023-03-13T23:27:42.452Z,9.50
2023-03-13T23:30:12.404Z,9.50
2023-03-13T23:32:42.779Z,9.50
2023-03-13T23:35:11.082Z,9.60
2023-03-13T23:37:39.176Z,9.60
2023-03-13T23:40:08.894Z,9.60
2023-03-13T23:42:36.720Z,9.70
2023-03-13T23:45:05.630Z,9.70
2023-03-13T23:47:33.805Z,9.60
2023-03-13T23:50:01.529Z,9.60
2023-03-13T23:52:29.046Z,9.60
2023-03-13T23:54:56.338Z,9.60
2023-03-13T23:57:23.790Z,9.60
2023-03-13T23:59:51.664Z,9.60
